Time;durP1;ratioP1;P1;durP2;ratioP2;P2;SDS_P1;SDS_P2;PMS_P1;PMS_P2;Temp;Humidity;BMP_temperature;BMP_pressure;BME280_temperature;BME280_humidity;BME280_pressure;Samples;Min_cycle;Max_cycle;Signal;HPM_P1;HPM_P2
2023/08/10 00:01:25;;;;;;;7.97;4.70;;;;;;;14.63;95.29;101318.16;6284745;22;20031;-80
2023/08/10 00:03:59;;;;;;;8.20;4.40;;;;;;;14.54;95.87;101324.41;6285792;22;20026;-82
2023/08/10 00:06:26;;;;;;;10.68;4.72;;;;;;;14.49;96.25;101331.97;6281767;22;20024;-80
2023/08/10 00:08:54;;;;;;;9.65;4.90;;;;;;;14.37;96.62;101325.34;6281613;22;20047;-80
2023/08/10 00:11:20;;;;;;;6.72;4.60;;;;;;;14.43;97.27;101343.16;6282912;22;20023;-80
2023/08/10 00:13:47;;;;;;;9.27;4.57;;;;;;;14.36;97.65;101331.59;6282463;22;20363;-80
2023/08/10 00:16:14;;;;;;;8.80;4.70;;;;;;;14.35;98.01;101343.13;6281650;22;20043;-79
2023/08/10 00:18:40;;;;;;;10.50;4.70;;;;;;;14.35;98.07;101343.13;6282913;22;20022;-81
2023/08/10 00:21:07;;;;;;;7.30;4.70;;;;;;;14.36;97.99;101336.88;6281336;22;20028;-79
2023/08/10 00:23:34;;;;;;;9.13;4.78;;;;;;;14.36;98.16;101344.75;6280885;22;20055;-79
2023/08/10 00:26:02;;;;;;;5.70;4.38;;;;;;;14.32;98.28;101341.63;6281433;22;20023;-80
2023/08/10 00:28:29;;;;;;;11.93;5.45;;;;;;;14.31;98.48;101342.63;6279797;22;20020;-78
2023/08/10 00:30:56;;;;;;;10.07;5.22;;;;;;;14.23;98.67;101348.69;6281088;22;20019;-79
2023/08/10 00:33:24;;;;;;;10.32;4.72;;;;;;;14.22;98.97;101336.50;6281245;22;20302;-79
2023/08/10 00:35:50;;;;;;;6.45;4.82;;;;;;;14.23;98.78;101348.69;6280446;22;20055;-78
2023/08/10 00:38:17;;;;;;;8.02;5.03;;;;;;;14.24;98.56;101345.06;6279996;22;20046;-78
2023/08/10 00:40:44;;;;;;;8.88;4.70;;;;;;;14.25;98.73;101344.09;6279744;22;20027;-79
2023/08/10 00:43:12;;;;;;;11.25;6.55;;;;;;;14.31;99.14;101350.50;6278682;22;20024;-77
2023/08/10 00:45:39;;;;;;;10.05;6.20;;;;;;;14.39;99.22;101352.34;6278706;22;20024;-78
2023/08/10 00:48:06;;;;;;;12.38;5.70;;;;;;;14.45;99.04;101349.91;6278422;22;20016;-79
2023/08/10 00:50:33;;;;;;;10.85;4.90;;;;;;;14.42;98.46;101341.50;6279311;22;20099;-80
2023/08/10 00:53:00;;;;;;;9.43;4.45;;;;;;;14.46;97.71;101329.66;6280982;22;20023;-78
2023/08/10 00:55:27;;;;;;;9.02;4.53;;;;;;;14.48;97.27;101333.78;6280793;22;20125;-80
2023/08/10 00:57:54;;;;;;;8.98;4.60;;;;;;;14.51;96.75;101340.53;6280433;22;20054;-78
2023/08/10 01:00:22;;;;;;;10.73;4.28;;;;;;;14.58;96.17;101341.53;6278689;22;20031;-79
2023/08/10 01:02:48;;;;;;;8.27;4.18;;;;;;;14.55;95.62;101329.50;6279085;22;20039;-79
2023/08/10 01:05:15;;;;;;;13.50;4.20;;;;;;;14.59;94.67;101330.81;6278005;22;20297;-78
2023/08/10 01:07:50;;;;;;;7.38;4.57;;;;;;;14.58;93.79;101323.09;6278873;22;20054;-78
2023/08/10 01:10:25;;;;;;;8.93;4.80;;;;;;;14.51;93.41;101322.09;6279686;22;20020;-79
2023/08/10 01:12:58;;;;;;;11.32;4.22;;;;;;;14.58;93.60;101325.72;6278467;22;20026;-80
2023/08/10 01:15:36;;;;;;;12.40;4.28;;;;;;;14.52;93.42;101334.28;6281323;22;20034;-79
2023/08/10 01:18:09;;;;;;;6.13;4.10;;;;;;;14.51;93.30;101330.00;6281674;22;20470;-79
2023/08/10 01:20:36;;;;;;;12.70;4.40;;;;;;;14.47;93.16;101339.22;6281685;22;20020;-80
2023/08/10 01:23:13;;;;;;;7.47;4.18;;;;;;;14.51;93.25;101332.63;6282350;22;20305;-80
2023/08/10 01:25:43;;;;;;;7.82;4.00;;;;;;;14.50;93.36;101333.63;6282949;22;20020;-80
2023/08/10 01:28:12;;;;;;;10.98;4.43;;;;;;;14.39;93.61;101326.00;6280780;22;20019;-79
2023/08/10 01:30:39;;;;;;;8.40;4.03;;;;;;;14.27;93.65;101338.66;6279858;22;20059;-79
2023/08/10 01:33:08;;;;;;;7.53;4.55;;;;;;;14.23;94.07;101342.59;6280356;22;20055;-79
2023/08/10 01:35:35;;;;;;;7.63;3.95;;;;;;;14.21;94.37;101347.19;6282172;22;20030;-81
2023/08/10 01:38:02;;;;;;;8.48;4.05;;;;;;;14.22;94.52;101360.19;6284536;22;20019;-79
2023/08/10 01:40:29;;;;;;;8.57;4.13;;;;;;;14.27;94.56;101354.44;6283027;22;20023;-80
2023/08/10 01:42:57;;;;;;;8.10;4.20;;;;;;;14.33;94.63;101348.53;6281321;22;20051;-78
2023/08/10 01:45:24;;;;;;;5.90;4.03;;;;;;;14.44;94.89;101350.06;6279291;22;20047;-79
2023/08/10 01:47:55;;;;;;;8.82;4.22;;;;;;;14.58;94.31;101349.44;6279886;22;20020;-80
2023/08/10 01:50:25;;;;;;;7.03;4.20;;;;;;;14.64;94.34;101350.59;6280692;22;20020;-79
2023/08/10 01:52:55;;;;;;;10.43;4.00;;;;;;;14.63;93.88;101343.66;6280333;22;20059;-78
2023/08/10 01:55:22;;;;;;;11.13;3.92;;;;;;;14.58;93.37;101337.09;6281803;22;20351;-80
2023/08/10 01:57:49;;;;;;;11.40;4.47;;;;;;;14.60;93.27;101336.91;6282565;22;20027;-80
2023/08/10 02:00:17;;;;;;;8.30;4.40;;;;;;;14.56;93.26;101344.31;6281914;22;20016;-80
2023/08/10 02:02:44;;;;;;;9.27;3.97;;;;;;;14.57;93.66;101345.97;6282625;22;20020;-79
2023/08/10 02:05:11;;;;;;;7.15;3.80;;;;;;;14.56;93.34;101343.50;6280046;22;20359;-80
2023/08/10 02:07:38;;;;;;;10.90;3.80;;;;;;;14.56;92.98;101340.88;6278560;22;20050;-79
2023/08/10 02:10:06;;;;;;;11.73;4.20;;;;;;;14.53;93.46;101346.47;6278324;22;20031;-78
2023/08/10 02:12:32;;;;;;;8.23;4.30;;;;;;;14.49;93.16;101350.41;6277410;22;20055;-81
2023/08/10 02:14:59;;;;;;;9.13;4.70;;;;;;;14.44;93.06;101336.91;6277997;22;20036;-78
2023/08/10 02:17:28;;;;;;;8.45;4.38;;;;;;;14.38;93.23;101345.41;6284585;22;20023;-79
2023/08/10 02:19:55;;;;;;;9.30;4.75;;;;;;;14.23;93.58;101351.31;6291316;22;20020;-78
2023/08/10 02:22:22;;;;;;;11.52;4.72;;;;;;;13.95;94.65;101355.22;6285805;22;20024;-79
2023/08/10 02:24:49;;;;;;;14.48;4.53;;;;;;;13.91;95.07;101361.78;6278368;22;20026;-79
2023/08/10 02:27:15;;;;;;;9.43;4.35;;;;;;;13.92;95.15;101359.00;6277326;22;20347;-78
2023/08/10 02:29:42;;;;;;;9.20;4.45;;;;;;;13.84;95.50;101368.66;6277197;22;20047;-78
2023/08/10 02:32:08;;;;;;;8.18;4.50;;;;;;;13.79;95.71;101365.69;6276825;22;20073;-79
2023/08/10 02:34:36;;;;;;;7.35;4.45;;;;;;;13.69;96.11;101365.00;6277830;22;20043;-79
2023/08/10 02:37:03;;;;;;;6.80;4.47;;;;;;;13.60;96.64;101361.50;6279323;22;20020;-80
2023/08/10 02:39:30;;;;;;;12.20;5.00;;;;;;;13.56;96.86;101360.19;6282456;22;20507;-80
2023/08/10 02:41:59;;;;;;;8.93;4.60;;;;;;;13.64;96.64;101352.34;6283378;22;20081;-81
2023/08/10 02:44:26;;;;;;;9.27;4.20;;;;;;;13.65;96.55;101355.78;6283104;22;20034;-80
2023/08/10 02:46:53;;;;;;;7.15;4.60;;;;;;;13.52;96.72;101337.81;6287039;22;20054;-77
2023/08/10 02:49:19;;;;;;;7.88;4.40;;;;;;;13.63;96.76;101349.84;6305232;22;20091;-79
2023/08/10 02:51:47;;;;;;;9.57;4.85;;;;;;;13.57;96.72;101354.75;6305625;22;20367;-79
2023/08/10 02:54:14;;;;;;;6.60;4.30;;;;;;;13.53;96.98;101355.22;6305392;22;20058;-79
2023/08/10 02:56:40;;;;;;;9.23;4.40;;;;;;;13.51;96.98;101363.28;6304709;22;20051;-78
2023/08/10 02:59:07;;;;;;;8.02;4.32;;;;;;;13.51;97.03;101362.47;6305535;22;20144;-78
2023/08/10 03:01:33;;;;;;;6.85;4.32;;;;;;;13.46;97.20;101360.28;6304811;22;20147;-78
2023/08/10 03:04:00;;;;;;;11.32;4.75;;;;;;;13.42;97.21;101361.59;6304908;22;20058;-78
2023/08/10 03:06:27;;;;;;;9.48;4.85;;;;;;;13.35;97.50;101363.19;6304867;22;20046;-78
2023/08/10 03:08:55;;;;;;;9.13;4.97;;;;;;;13.33;97.82;101370.41;6304558;22;20019;-76
2023/08/10 03:11:21;;;;;;;11.75;4.70;;;;;;;13.30;97.85;101375.97;6305594;22;20102;-78
2023/08/10 03:13:48;;;;;;;8.30;5.20;;;;;;;13.21;98.17;101380.38;6304827;22;20145;-79
2023/08/10 03:16:15;;;;;;;8.38;5.05;;;;;;;13.14;98.68;101381.94;6305117;22;20098;-75
2023/08/10 03:18:41;;;;;;;12.05;5.03;;;;;;;13.16;99.07;101381.81;6304592;22;20055;-77
2023/08/10 03:21:08;;;;;;;8.20;4.63;;;;;;;13.08;99.22;101394.88;6305006;22;20393;-77
2023/08/10 03:23:34;;;;;;;11.27;4.88;;;;;;;13.03;99.55;101395.31;6304743;22;20099;-78
2023/08/10 03:26:02;;;;;;;12.35;5.03;;;;;;;13.01;99.73;101391.19;6306154;22;20413;-77
2023/08/10 03:28:29;;;;;;;10.15;5.43;;;;;;;13.01;99.95;101389.41;6304815;22;20134;-78
2023/08/10 03:30:56;;;;;;;10.43;4.75;;;;;;;13.00;100.00;101384.28;6304956;22;20098;-77
2023/08/10 03:33:22;;;;;;;9.38;4.93;;;;;;;12.97;99.95;101390.69;6305036;22;20061;-77
2023/08/10 03:35:49;;;;;;;8.27;4.95;;;;;;;13.03;99.70;101395.31;6305122;22;20552;-78
2023/08/10 03:38:15;;;;;;;8.80;5.80;;;;;;;12.99;99.41;101403.66;6304831;22;20050;-78
2023/08/10 03:40:42;;;;;;;7.15;5.25;;;;;;;12.94;99.84;101406.75;6304453;22;20094;-78
2023/08/10 03:43:10;;;;;;;8.82;5.20;;;;;;;12.90;99.94;101400.97;6301794;22;20027;-78
2023/08/10 03:45:37;;;;;;;13.10;5.57;;;;;;;12.80;100.00;101399.41;6303438;22;20051;-76
2023/08/10 03:48:04;;;;;;;8.70;5.53;;;;;;;12.79;100.00;101406.44;6303520;22;20102;-79
2023/08/10 03:50:31;;;;;;;9.52;5.93;;;;;;;12.78;100.00;101411.84;6304003;22;20425;-78
2023/08/10 03:52:57;;;;;;;9.57;5.90;;;;;;;12.76;100.00;101411.22;6303191;22;20038;-78
2023/08/10 03:55:24;;;;;;;11.60;6.15;;;;;;;12.70;100.00;101409.19;6303451;22;20019;-79
2023/08/10 03:57:51;;;;;;;8.60;5.47;;;;;;;12.69;100.00;101423.28;6303659;22;20023;-77
2023/08/10 04:00:21;;;;;;;10.90;5.75;;;;;;;12.67;100.00;101428.69;6303151;22;20404;-77
2023/08/10 04:02:47;;;;;;;8.48;5.90;;;;;;;12.67;100.00;101419.97;6303786;22;20359;-78
2023/08/10 04:05:14;;;;;;;13.15;5.38;;;;;;;12.65;100.00;101422.75;6304023;22;20491;-79
2023/08/10 04:07:41;;;;;;;10.23;6.00;;;;;;;12.63;100.00;101422.91;6303679;22;20023;-79
2023/08/10 04:10:10;;;;;;;10.00;5.28;;;;;;;12.62;100.00;101418.63;6303305;22;20019;-78
2023/08/10 04:12:37;;;;;;;9.30;5.65;;;;;;;12.59;100.00;101431.22;6307534;22;20054;-79
2023/08/10 04:15:07;;;;;;;8.20;5.07;;;;;;;12.61;100.00;101438.00;6306152;22;20391;-79
2023/08/10 04:17:35;;;;;;;12.25;5.82;;;;;;;12.53;100.00;101427.41;6307002;22;20019;-79
2023/08/10 04:20:02;;;;;;;9.13;5.35;;;;;;;12.52;100.00;101433.63;6305411;22;20073;-79
2023/08/10 04:22:28;;;;;;;10.98;5.43;;;;;;;12.53;100.00;101421.31;6304718;22;20027;-79
2023/08/10 04:24:55;;;;;;;8.38;5.70;;;;;;;12.51;100.00;101420.66;6307385;22;20022;-79
2023/08/10 04:27:22;;;;;;;9.32;5.40;;;;;;;12.53;100.00;101426.56;6309802;22;20077;-79
2023/08/10 04:29:49;;;;;;;10.55;5.47;;;;;;;12.55;100.00;101433.31;6311828;22;20019;-79
2023/08/10 04:32:15;;;;;;;9.65;5.95;;;;;;;12.63;100.00;101429.97;6308049;22;20234;-77
2023/08/10 04:34:43;;;;;;;9.07;5.72;;;;;;;12.69;100.00;101437.25;6304167;22;20360;-79
2023/08/10 04:37:10;;;;;;;9.18;5.28;;;;;;;12.68;100.00;101435.59;6310698;22;20099;-77
2023/08/10 04:39:36;;;;;;;10.45;5.18;;;;;;;12.79;100.00;101439.78;6307117;22;20050;-78
2023/08/10 04:42:03;;;;;;;11.63;6.22;;;;;;;12.91;100.00;101449.91;6306825;22;20358;-77
2023/08/10 04:44:30;;;;;;;9.27;5.80;;;;;;;13.09;100.00;101442.00;6317744;22;20065;-78
2023/08/10 04:46:57;;;;;;;10.55;6.45;;;;;;;13.23;99.05;101433.59;6307682;22;20055;-78
2023/08/10 04:49:26;;;;;;;13.18;5.75;;;;;;;13.29;98.30;101430.34;6308135;22;20058;-78
2023/08/10 04:51:54;;;;;;;9.77;5.18;;;;;;;13.33;98.32;101443.19;6307377;22;20026;-77
2023/08/10 04:54:20;;;;;;;9.02;5.60;;;;;;;13.39;97.95;101446.03;6306889;22;20101;-77
2023/08/10 04:56:47;;;;;;;11.18;5.80;;;;;;;13.43;97.95;101436.84;6306878;22;20023;-79
2023/08/10 04:59:14;;;;;;;10.77;5.75;;;;;;;13.53;97.94;101444.63;6307425;22;20369;-77
2023/08/10 05:01:40;;;;;;;10.73;5.57;;;;;;;13.57;97.57;101440.72;6306846;22;20084;-78
2023/08/10 05:04:07;;;;;;;12.20;5.38;;;;;;;13.61;96.95;101428.91;6308479;22;20149;-79
2023/08/10 05:06:34;;;;;;;14.40;5.90;;;;;;;13.74;96.74;101433.72;6308631;22;20093;-79
2023/08/10 05:09:04;;;;;;;13.15;5.72;;;;;;;13.83;96.66;101435.41;6320720;22;20071;-78
2023/08/10 05:11:31;;;;;;;10.70;5.57;;;;;;;13.99;96.07;101422.34;6307154;22;20023;-78
2023/08/10 05:13:57;;;;;;;10.80;4.93;;;;;;;14.26;95.50;101416.81;6306848;22;20019;-77
2023/08/10 05:16:24;;;;;;;9.43;5.20;;;;;;;14.61;94.53;101417.59;6307010;22;20106;-76
2023/08/10 05:18:51;;;;;;;12.65;5.72;;;;;;;14.62;93.14;101406.06;6306556;22;20535;-77
2023/08/10 05:21:18;;;;;;;8.52;4.93;;;;;;;14.90;92.39;101402.09;6307114;22;20019;-78
2023/08/10 05:23:44;;;;;;;8.60;4.80;;;;;;;15.11;91.62;101406.03;6306500;22;20023;-77
2023/08/10 05:26:13;;;;;;;11.27;5.07;;;;;;;15.20;90.72;101410.28;6309373;22;20023;-77
2023/08/10 05:28:39;;;;;;;8.25;5.22;;;;;;;15.25;90.50;101407.97;6306905;22;20402;-74
2023/08/10 05:31:06;;;;;;;8.15;5.80;;;;;;;15.31;90.32;101409.94;6308949;22;20058;-78
2023/08/10 05:33:33;;;;;;;10.05;5.78;;;;;;;15.48;90.23;101419.47;6315564;22;20184;-77
2023/08/10 05:35:59;;;;;;;9.32;5.38;;;;;;;15.52;89.30;101417.34;6320182;22;20083;-79
2023/08/10 05:38:26;;;;;;;8.93;4.88;;;;;;;15.46;89.39;101420.63;6313069;22;20058;-78
2023/08/10 05:40:55;;;;;;;9.35;5.40;;;;;;;15.48;89.42;101421.28;6309415;22;20016;-78
2023/08/10 05:43:23;;;;;;;8.95;4.78;;;;;;;16.00;89.18;101426.91;6309480;22;20019;-77
2023/08/10 05:45:50;;;;;;;7.85;4.63;;;;;;;17.48;86.31;101423.00;6307178;22;20425;-80
2023/08/10 05:48:16;;;;;;;10.82;4.78;;;;;;;18.85;79.66;101403.63;6308720;22;20023;-78
2023/08/10 05:50:43;;;;;;;9.65;4.22;;;;;;;20.14;74.33;101391.47;6318710;22;20019;-78
2023/08/10 05:53:10;;;;;;;8.90;4.78;;;;;;;20.41;72.11;101400.34;6316745;22;20066;-78
2023/08/10 05:55:36;;;;;;;6.93;4.85;;;;;;;21.70;69.06;101403.34;6317665;22;20019;-79
2023/08/10 05:58:05;;;;;;;8.18;4.43;;;;;;;22.33;66.86;101406.94;6307818;22;20505;-78
2023/08/10 06:00:33;;;;;;;9.02;4.88;;;;;;;23.34;64.66;101393.41;6307963;22;20029;-78
2023/08/10 06:03:00;;;;;;;9.57;4.80;;;;;;;23.77;62.68;101387.16;6308777;22;20019;-78
2023/08/10 06:05:27;;;;;;;7.80;4.57;;;;;;;23.63;61.88;101383.06;6307695;22;20051;-78
2023/08/10 06:07:53;;;;;;;7.45;4.78;;;;;;;23.82;61.71;101385.47;6307897;22;20328;-78
2023/08/10 06:10:20;;;;;;;9.70;4.00;;;;;;;24.08;60.97;101388.84;6307418;22;20034;-76
2023/08/10 06:12:47;;;;;;;7.82;4.10;;;;;;;24.28;59.88;101383.22;6307510;22;20023;-77
2023/08/10 06:15:15;;;;;;;6.80;4.05;;;;;;;23.90;59.85;101386.19;6307507;22;20015;-76
2023/08/10 06:17:43;;;;;;;11.68;4.22;;;;;;;23.84;61.19;101393.25;6307311;22;20015;-77
2023/08/10 06:20:13;;;;;;;7.63;4.20;;;;;;;24.64;58.74;101380.38;6306089;22;20022;-78
2023/08/10 06:22:41;;;;;;;5.47;3.92;;;;;;;24.50;58.61;101387.00;6306449;22;20023;-77
2023/08/10 06:25:09;;;;;;;9.25;3.97;;;;;;;24.37;59.28;101397.91;6306757;22;20023;-76
2023/08/10 06:27:36;;;;;;;7.63;4.07;;;;;;;24.89;58.09;101398.09;6306408;22;20027;-78
2023/08/10 06:30:04;;;;;;;7.18;4.00;;;;;;;25.02;58.05;101387.19;6306544;22;20015;-78
2023/08/10 06:32:31;;;;;;;11.10;4.90;;;;;;;25.44;57.00;101398.56;6306923;22;20049;-76
2023/08/10 06:34:59;;;;;;;7.65;4.20;;;;;;;25.89;57.23;101401.38;6306282;22;20023;-82
2023/08/10 06:37:26;;;;;;;8.57;3.95;;;;;;;25.61;56.03;101385.22;6306251;22;20073;-78
2023/08/10 06:39:53;;;;;;;9.40;3.45;;;;;;;25.48;56.26;101390.88;6308393;22;20025;-77
2023/08/10 06:42:19;;;;;;;7.53;3.72;;;;;;;25.62;55.52;101397.56;6306408;22;20136;-76
2023/08/10 06:44:46;;;;;;;5.57;3.38;;;;;;;25.95;54.88;101397.75;6306857;22;20050;-80
2023/08/10 06:47:13;;;;;;;8.48;3.80;;;;;;;25.86;55.91;101395.69;6306615;22;20023;-77
2023/08/10 06:49:39;;;;;;;6.60;3.70;;;;;;;26.33;55.39;101396.31;6308358;22;20098;-79
2023/08/10 06:52:08;;;;;;;6.28;3.80;;;;;;;26.22;54.92;101405.19;6308570;22;20062;-76
2023/08/10 06:54:35;;;;;;;6.28;3.67;;;;;;;26.43;55.07;101408.03;6308779;22;20020;-79
2023/08/10 06:57:02;;;;;;;11.43;4.20;;;;;;;26.31;54.61;101391.19;6309263;22;20054;-79
2023/08/10 06:59:29;;;;;;;12.02;4.05;;;;;;;26.26;54.71;101396.44;6310883;22;20019;-79
2023/08/10 07:01:55;;;;;;;7.88;3.65;;;;;;;25.72;54.35;101390.59;6309311;22;20094;-78
2023/08/10 07:04:22;;;;;;;7.22;3.85;;;;;;;25.59;55.06;101388.13;6311047;22;20023;-78
2023/08/10 07:06:48;;;;;;;6.90;3.33;;;;;;;26.37;55.08;101408.19;6309844;22;20066;-78
2023/08/10 07:09:16;;;;;;;8.38;3.40;;;;;;;26.86;53.13;101393.16;6311175;22;20061;-80
2023/08/10 07:11:43;;;;;;;4.60;2.90;;;;;;;26.64;51.69;101387.69;6309996;22;20073;-80
2023/08/10 07:14:10;;;;;;;8.13;3.90;;;;;;;26.62;53.57;101391.69;6308567;22;20370;-80
2023/08/10 07:16:36;;;;;;;8.80;3.67;;;;;;;27.25;52.08;101385.94;6308384;22;20054;-80
2023/08/10 07:19:03;;;;;;;5.25;3.15;;;;;;;27.08;51.48;101377.91;6308201;22;20030;-81
2023/08/10 07:21:30;;;;;;;5.03;3.08;;;;;;;27.17;50.22;101370.25;6308735;22;20015;-80
2023/08/10 07:23:57;;;;;;;6.32;2.58;;;;;;;27.21;50.06;101373.25;6310215;22;20023;-80
2023/08/10 07:26:25;;;;;;;6.18;2.78;;;;;;;27.40;48.93;101372.72;6308304;22;20019;-81
2023/08/10 07:28:52;;;;;;;7.85;3.00;;;;;;;27.01;50.16;101365.72;6308593;22;20027;-80
2023/08/10 07:31:20;;;;;;;6.63;3.08;;;;;;;27.33;50.51;101380.16;6309003;22;20024;-80
2023/08/10 07:33:46;;;;;;;14.73;3.70;;;;;;;27.10;49.71;101377.66;6308245;22;20481;-82
2023/08/10 07:36:13;;;;;;;5.07;2.60;;;;;;;27.52;49.16;101372.56;6307221;22;20350;-80
2023/08/10 07:38:42;;;;;;;4.53;2.50;;;;;;;28.07;48.17;101368.88;6311547;22;20030;-81
2023/08/10 07:41:08;;;;;;;5.03;2.50;;;;;;;27.19;49.09;101373.50;6310912;22;20321;-80
2023/08/10 07:43:36;;;;;;;5.50;2.50;;;;;;;27.33;47.89;101368.59;6317620;22;20166;-80
2023/08/10 07:46:04;;;;;;;4.32;2.60;;;;;;;27.42;48.86;101380.50;6314300;22;20097;-81
2023/08/10 07:48:30;;;;;;;6.78;2.45;;;;;;;27.79;48.65;101388.78;6310370;22;20023;-80
2023/08/10 07:50:58;;;;;;;6.47;2.60;;;;;;;27.79;45.78;101364.59;6310683;22;20035;-81
2023/08/10 07:53:28;;;;;;;4.88;2.58;;;;;;;27.85;46.72;101368.97;6311272;22;20410;-80
2023/08/10 07:55:54;;;;;;;6.85;2.55;;;;;;;27.63;47.90;101368.97;6311123;22;20023;-80
2023/08/10 07:58:21;;;;;;;5.75;2.55;;;;;;;27.66;45.26;101356.91;6311478;22;20023;-80
2023/08/10 08:00:49;;;;;;;2.50;1.85;;;;;;;27.88;43.94;101356.88;6310824;22;20028;-81
2023/08/10 08:03:17;;;;;;;4.03;1.85;;;;;;;27.85;45.06;101366.28;6311405;22;20024;-82
2023/08/10 08:05:44;;;;;;;9.05;2.60;;;;;;;27.07;47.60;101360.16;6311706;22;20034;-79
2023/08/10 08:08:10;;;;;;;6.60;4.18;;;;;;;27.50;47.21;101363.13;6309939;22;20019;-80
2023/08/10 08:10:37;;;;;;;5.95;2.38;;;;;;;27.71;46.08;101356.97;6308899;22;20047;-79
2023/08/10 08:13:06;;;;;;;4.65;2.35;;;;;;;27.12;45.76;101340.63;6310661;22;20024;-79
2023/08/10 08:15:33;;;;;;;4.18;2.65;;;;;;;26.53;45.98;101337.59;6310085;22;20051;-80
2023/08/10 08:18:45;;;;;;;5.18;2.60;;;;;;;26.65;46.43;101351.75;6310977;22;20023;-79
2023/08/10 08:21:14;;;;;;;4.28;2.25;;;;;;;26.91;45.47;101341.41;6236573;22;20065;-80
2023/08/10 08:23:41;;;;;;;3.58;2.38;;;;;;;26.60;47.22;101357.03;6310634;22;20405;-80
2023/08/10 08:26:08;;;;;;;3.47;2.10;;;;;;;26.51;45.98;101358.50;6310399;22;20058;-79
2023/08/10 08:28:35;;;;;;;4.00;2.28;;;;;;;25.76;45.91;101340.00;6310687;22;20471;-79
2023/08/10 08:31:02;;;;;;;5.57;2.15;;;;;;;26.64;46.55;101349.31;6311635;22;20102;-79
2023/08/10 08:33:29;;;;;;;4.43;2.40;;;;;;;27.31;44.69;101339.28;6311184;22;20137;-80
2023/08/10 08:35:56;;;;;;;5.97;2.42;;;;;;;27.52;45.57;101347.56;6309778;22;20019;-79
2023/08/10 08:38:27;;;;;;;5.15;2.47;;;;;;;27.25;45.88;101340.25;6310237;22;20034;-79
2023/08/10 08:40:55;;;;;;;4.70;2.50;;;;;;;26.50;46.80;101340.75;6310132;22;20482;-80
2023/08/10 08:43:22;;;;;;;5.82;2.63;;;;;;;26.70;44.96;101330.34;6309207;22;20019;-80
2023/08/10 08:45:49;;;;;;;3.55;2.13;;;;;;;26.81;45.12;101327.81;6302429;22;20097;-77
2023/08/10 08:48:44;;;;;;;5.55;2.40;;;;;;;26.54;45.94;101322.31;6309775;22;20128;-78
2023/08/10 08:51:12;;;;;;;3.90;2.28;;;;;;;25.58;46.24;101306.13;6191025;23;20021;-81
2023/08/10 08:57:16;;;;;;;5.78;2.22;;;;;;;25.85;47.77;101319.78;6241841;22;20055;-78
2023/08/10 08:59:57;;;;;;;3.55;2.22;;;;;;;26.12;47.52;101323.50;6315997;22;20186;-80
2023/08/10 09:03:09;;;;;;;5.53;2.88;;;;;;;25.37;46.81;101307.59;6315219;22;20015;-81
2023/08/10 09:05:36;;;;;;;5.80;2.90;;;;;;;25.64;47.27;101286.44;6314586;22;20350;-80
2023/08/10 09:08:14;;;;;;;4.07;2.70;;;;;;;25.39;45.50;101288.63;6316706;22;20023;-80
2023/08/10 09:14:49;;;;;;;3.40;1.67;;;;;;;25.32;48.76;101307.50;6290730;22;20058;-81
2023/08/10 09:17:46;;;;;;;3.15;2.10;;;;;;;26.17;46.89;101276.34;6311360;22;20038;-80
2023/08/10 09:20:45;;;;;;;4.80;2.42;;;;;;;26.29;47.35;101293.19;6310858;22;20309;-80
2023/08/10 09:23:19;;;;;;;4.28;2.17;;;;;;;26.07;46.60;101299.25;6313946;22;20087;-79
2023/08/10 09:29:40;;;;;;;4.63;3.17;;;;;;;25.62;47.34;101293.88;6207376;22;20037;-81
2023/08/10 09:32:19;;;;;;;;;;;;;;;25.46;47.79;101311.53;6313868;22;20503;-80
2023/08/10 09:37:59;;;;;;;2.65;1.90;;;;;;;25.89;47.03;101294.13;6309364;22;20059;-81
2023/08/10 09:40:38;;;;;;;3.38;2.25;;;;;;;25.56;48.90;101304.72;6314546;22;20030;-80
2023/08/10 09:43:16;;;;;;;4.70;2.90;;;;;;;26.21;47.98;101307.00;6315690;22;20085;-80
2023/08/10 09:48:53;;;;;;;3.92;2.10;;;;;;;25.57;49.07;101301.81;6310104;22;20030;-78
2023/08/10 09:51:21;;;;;;;2.67;2.40;;;;;;;25.69;49.21;101288.41;6311683;22;20071;-78
2023/08/10 09:53:48;;;;;;;4.95;2.63;;;;;;;24.91;48.99;101303.13;6312388;22;20114;-80
2023/08/10 09:56:25;;;;;;;4.28;2.17;;;;;;;24.87;50.19;101322.56;6313591;22;20084;-79
2023/08/10 09:58:52;;;;;;;5.38;2.47;;;;;;;24.66;49.63;101300.69;6282761;22;20023;-79
2023/08/10 10:01:19;;;;;;;2.85;2.33;;;;;;;24.70;50.47;101290.31;6309867;22;20028;-80
2023/08/10 10:03:47;;;;;;;5.18;2.75;;;;;;;24.89;51.11;101320.47;6317541;22;20082;-80
2023/08/10 10:06:16;;;;;;;4.50;2.50;;;;;;;24.60;51.22;101306.97;6316303;22;20023;-80
2023/08/10 10:08:51;;;;;;;3.42;2.40;;;;;;;24.39;50.22;101304.88;6315292;22;20019;-80
2023/08/10 10:11:24;;;;;;;6.78;2.65;;;;;;;23.80;50.83;101307.38;6308568;22;20062;-80
2023/08/10 10:13:52;;;;;;;4.85;2.60;;;;;;;23.68;52.45;101321.72;6315004;22;20027;-80
2023/08/10 10:16:20;;;;;;;3.80;2.50;;;;;;;23.62;51.86;101310.09;6319964;22;20027;-80
2023/08/10 10:18:51;;;;;;;5.07;2.65;;;;;;;22.98;53.07;101307.94;6320136;22;20292;-79
2023/08/10 10:21:18;;;;;;;4.97;2.50;;;;;;;23.03;52.89;101302.75;6317972;22;20054;-83
2023/08/10 10:23:49;;;;;;;4.40;2.85;;;;;;;23.53;53.80;101310.59;6315216;22;20019;-81
2023/08/10 10:26:21;;;;;;;4.40;2.58;;;;;;;23.56;53.42;101310.19;6314355;22;20098;-78
2023/08/10 10:29:07;;;;;;;3.88;3.00;;;;;;;24.04;52.07;101304.78;6313452;22;20475;-82
2023/08/10 10:31:34;;;;;;;5.35;3.45;;;;;;;24.08;52.92;101312.13;6311611;22;20020;-79
2023/08/10 10:34:03;;;;;;;6.13;3.50;;;;;;;23.65;53.56;101308.81;6310794;22;20029;-81
2023/08/10 10:36:32;;;;;;;8.52;3.65;;;;;;;23.61;53.70;101313.00;6311563;22;20358;-80
2023/08/10 10:39:07;;;;;;;10.70;3.70;;;;;;;22.99;54.28;101309.56;6313373;22;20051;-84
2023/08/10 10:41:35;;;;;;;7.88;4.40;;;;;;;23.62;53.76;101312.78;6314612;22;20031;-80
2023/08/10 10:44:04;;;;;;;7.53;4.57;;;;;;;23.34;53.55;101307.94;6311984;22;20023;-79
2023/08/10 10:46:40;;;;;;;8.90;4.72;;;;;;;23.42;53.91;101310.31;6311882;22;20039;-77
2023/08/10 10:49:15;;;;;;;7.85;5.43;;;;;;;23.82;54.87;101320.50;6312239;22;20023;-82
2023/08/10 10:52:00;;;;;;;7.45;4.35;;;;;;;24.23;54.22;101321.53;6313353;22;20026;-83
2023/08/10 10:54:28;;;;;;;6.47;4.07;;;;;;;24.26;52.90;101300.53;6312766;22;20435;-82
2023/08/10 10:56:56;;;;;;;9.98;4.50;;;;;;;24.22;52.95;101315.38;6309455;22;20030;-82
2023/08/10 10:59:22;;;;;;;5.38;4.07;;;;;;;23.63;53.67;101308.25;6311810;22;20035;-83
2023/08/10 11:01:49;;;;;;;14.13;4.70;;;;;;;23.92;53.03;101319.97;6313141;22;20031;-81
2023/08/10 11:04:17;;;;;;;9.02;4.57;;;;;;;24.19;54.46;101315.84;6313907;22;20023;-83
2023/08/10 11:06:44;;;;;;;7.22;4.68;;;;;;;24.46;52.99;101306.38;6312149;22;20034;-82
2023/08/10 11:09:13;;;;;;;8.32;4.97;;;;;;;24.25;53.92;101311.44;6314008;22;20381;-82
2023/08/10 11:11:40;;;;;;;14.05;6.05;;;;;;;23.52;55.02;101319.66;6312083;22;20343;-81
2023/08/10 11:14:07;;;;;;;8.48;5.00;;;;;;;23.55;55.18;101324.56;6313392;22;20023;-81
2023/08/10 11:16:36;;;;;;;8.25;5.78;;;;;;;23.67;54.50;101306.72;6313271;22;20023;-82
2023/08/10 11:19:09;;;;;;;9.57;6.10;;;;;;;24.02;54.52;101307.69;6312273;22;20023;-82
2023/08/10 11:21:38;;;;;;;9.25;5.63;;;;;;;23.70;54.62;101306.28;6315669;22;20019;-82
2023/08/10 11:24:07;;;;;;;7.68;4.88;;;;;;;24.25;54.33;101298.91;6315604;22;20494;-82
2023/08/10 11:26:37;;;;;;;8.07;4.97;;;;;;;24.46;54.74;101300.22;6315846;22;20027;-81
2023/08/10 11:29:04;;;;;;;11.25;5.38;;;;;;;24.28;53.83;101298.44;6313744;22;20027;-80
2023/08/10 11:31:38;;;;;;;8.05;5.07;;;;;;;24.29;54.99;101304.63;6313388;22;20019;-81
2023/08/10 11:34:18;;;;;;;8.57;5.57;;;;;;;23.64;55.31;101297.31;6313303;22;20019;-81
2023/08/10 11:36:46;;;;;;;9.70;5.20;;;;;;;23.71;55.98;101305.22;6311908;22;20051;-79
2023/08/10 11:39:13;;;;;;;12.32;6.53;;;;;;;24.08;55.28;101290.72;6312897;22;20019;-81
2023/08/10 11:41:41;;;;;;;8.57;5.40;;;;;;;24.26;55.09;101284.50;6313866;22;20019;-80
2023/08/10 11:44:09;;;;;;;9.45;4.68;;;;;;;24.24;56.12;101297.25;6314095;22;20023;-81
2023/08/10 11:46:35;;;;;;;8.65;4.95;;;;;;;24.06;56.07;101290.13;6312291;22;20027;-81